Portada
METAR-TAF:

METAR-TAF

Aeroports :

Dalian, Xina

latitud: 38-54N, longitud: 121-38E, altitud: 97 m

Observació

L'informe es va fer fa 48 minuts, a les 02:30 UTC
Vent 21 kt del Oest
Temperatura 15°C
Humitat 44%
Pressió 1005 hPa
Visibilitat: 2500 m
Pols estès

METAR: ZYTL 070230Z 28011MPS 2500 DU NSC 15/03 Q1005 NOSIG

Hora: 11:18 (03:18 UTC)

Pronòstic

L'informe es va fer fa 6 hores i 8 minuts, a les 21:10 UTC
Pronòstic vàlid del 07 a les 00 UTC al 07 a les 24 UTC
Vent 19 kt del Oest amb ràfegues de 35 kt
Visibilitat: 4000 m
boirina
Temporalment
l' 07 a les 00 UTC al 07 a les 06 UTC
Visibilitat: 2000 m
Pols estès, boirina
Evolucionant progressivament
l' 07 a les 12 UTC al 07 a les 13 UTC
Vent 10 kt del Sud-Oest amb ràfegues de 23 kt

TAF: ZYTL 062110Z 0700/0724 28010G18MPS 4000 BR NSC TX20/0706Z TN12/0720Z TEMPO 0700/0706 2000 DU BR BECMG 0712/0713 22005G12MPS

Observacions i pronòstics meteorològics de més de 4000 aeroports (METAR i TAF).

Les estacions disponibles són els punts grocs i vermells al mapa.

Posi el ratolí al punt desitjat per veure el nom de l'estació.

Feu clic per veure les observacions i els pronòstics meteorològics.

Per canviar el mapa: feu clic els botons verds amb una creu de color negre per apropar; al botó verd amb un guió per allunyar la imatge; o en les fletxes verdes per a mapes adjacents.


METAR-TAF: